createdAt,value
2018-05-03T00:00:39.592Z,3.77
2018-05-03T00:03:07.300Z,4.37
2018-05-03T00:05:34.752Z,3.47
2018-05-03T00:08:02.741Z,4.07
2018-05-03T00:10:30.956Z,4.30
2018-05-03T00:12:58.422Z,4.03
2018-05-03T00:15:25.874Z,3.90
2018-05-03T00:17:53.311Z,3.67
2018-05-03T00:20:20.771Z,3.27
2018-05-03T00:22:48.221Z,3.60
2018-05-03T00:25:15.661Z,3.13
2018-05-03T00:27:43.112Z,2.87
2018-05-03T00:30:11.321Z,3.73
2018-05-03T00:32:38.780Z,3.70
2018-05-03T00:35:06.227Z,3.60
2018-05-03T00:37:33.673Z,4.37
2018-05-03T00:40:02.940Z,3.87
2018-05-03T00:42:30.807Z,3.93
2018-05-03T00:44:58.264Z,3.77
2018-05-03T00:47:26.477Z,3.80
2018-05-03T00:49:53.914Z,3.63
2018-05-03T00:52:21.361Z,4.23
2018-05-03T00:54:50.135Z,3.73
2018-05-03T00:57:18.387Z,3.67
2018-05-03T00:59:46.240Z,3.33
2018-05-03T01:02:13.692Z,3.70
2018-05-03T01:04:41.149Z,3.73
2018-05-03T01:07:08.588Z,3.90
2018-05-03T01:09:36.461Z,3.30
2018-05-03T01:12:03.919Z,3.60
2018-05-03T01:14:31.359Z,4.17
2018-05-03T01:16:58.797Z,3.57
2018-05-03T01:19:27.016Z,4.73
2018-05-03T01:21:54.456Z,3.23
2018-05-03T01:24:21.911Z,3.50
2018-05-03T01:26:50.400Z,3.90
2018-05-03T01:29:17.865Z,3.63
2018-05-03T01:31:45.719Z,2.83
2018-05-03T01:34:13.152Z,3.50
2018-05-03T01:36:41.364Z,4.33
2018-05-03T01:39:08.811Z,3.87
2018-05-03T01:41:36.364Z,3.80
2018-05-03T01:44:03.811Z,3.20
2018-05-03T01:46:31.280Z,3.17
2018-05-03T01:48:58.732Z,3.73
2018-05-03T01:51:26.184Z,3.00
2018-05-03T01:53:54.048Z,3.50
2018-05-03T01:56:21.482Z,3.23
2018-05-03T01:58:49.687Z,3.37
2018-05-03T02:01:19.760Z,3.47
2018-05-03T02:03:47.208Z,3.47
2018-05-03T02:06:14.649Z,3.17
2018-05-03T02:08:42.105Z,3.37
2018-05-03T02:11:09.559Z,3.50
2018-05-03T02:13:36.999Z,3.23
2018-05-03T02:16:04.872Z,4.13
2018-05-03T02:18:32.311Z,2.93
2018-05-03T02:21:00.488Z,3.77
2018-05-03T02:23:27.929Z,3.10
2018-05-03T02:25:55.371Z,3.10
2018-05-03T02:28:23.585Z,3.80
2018-05-03T02:30:51.576Z,3.50
2018-05-03T02:33:19.025Z,3.27
2018-05-03T02:35:47.244Z,3.40
2018-05-03T02:38:15.576Z,3.07
2018-05-03T02:40:43.049Z,3.17
2018-05-03T02:43:10.607Z,3.30
2018-05-03T02:45:38.478Z,3.10
2018-05-03T02:48:05.919Z,3.23
2018-05-03T02:50:34.679Z,3.73
2018-05-03T02:53:02.139Z,3.23
2018-05-03T02:55:29.583Z,3.10
2018-05-03T02:58:19.812Z,3.03
2018-05-03T03:01:05.259Z,3.50
2018-05-03T03:03:50.172Z,3.30
2018-05-03T03:06:35.177Z,3.47
2018-05-03T03:09:20.307Z,3.30
2018-05-03T03:12:05.391Z,3.90
2018-05-03T03:14:51.476Z,3.83
2018-05-03T03:20:54.814Z,3.70
2018-05-03T03:23:40.700Z,3.87
2018-05-03T03:29:47.789Z,3.60
2018-05-03T03:32:27.156Z,3.80
2018-05-03T03:38:24.508Z,4.27
2018-05-03T03:41:03.585Z,4.53
2018-05-03T03:43:42.904Z,4.23
2018-05-03T03:46:10.347Z,4.70
2018-05-03T03:48:38.564Z,4.33
2018-05-03T03:51:06.131Z,4.70
2018-05-03T03:53:33.583Z,4.37
2018-05-03T03:56:01.576Z,3.93
2018-05-03T03:58:30.090Z,5.00
2018-05-03T04:00:58.301Z,5.07
2018-05-03T04:03:25.751Z,4.87
2018-05-03T04:05:53.639Z,4.23
2018-05-03T04:08:21.138Z,3.67
2018-05-03T04:10:49.020Z,4.10
2018-05-03T04:13:17.242Z,4.30
2018-05-03T04:15:44.694Z,4.00
2018-05-03T04:18:23.971Z,4.33
2018-05-03T04:21:06.845Z,4.67
2018-05-03T04:40:54.904Z,4.90
2018-05-03T04:43:22.368Z,5.80
2018-05-03T04:45:52.297Z,5.70
2018-05-03T04:48:19.768Z,5.57
2018-05-03T04:50:47.991Z,5.67
2018-05-03T04:53:15.436Z,5.17
2018-05-03T05:13:02.777Z,4.20
2018-05-03T05:15:30.234Z,4.30
2018-05-03T05:17:57.812Z,4.40
2018-05-03T05:20:25.186Z,4.20
2018-05-03T05:22:53.186Z,4.23
2018-05-03T05:25:21.404Z,3.50
2018-05-03T05:27:48.857Z,3.30
2018-05-03T05:30:16.337Z,3.43
2018-05-03T05:32:43.828Z,3.33
2018-05-03T05:35:12.072Z,3.57
2018-05-03T05:37:39.512Z,3.27
2018-05-03T05:48:51.284Z,2.73
2018-05-03T05:51:18.881Z,2.87
2018-05-03T05:53:46.343Z,2.90
2018-05-03T05:56:14.571Z,3.17
2018-05-03T05:58:42.080Z,3.27
2018-05-03T06:01:09.581Z,3.37
2018-05-03T06:03:37.063Z,3.13
2018-05-03T06:06:04.544Z,3.37
2018-05-03T06:08:35.820Z,3.23
2018-05-03T06:11:03.511Z,3.13
2018-05-03T06:13:30.963Z,3.80
2018-05-03T06:15:58.634Z,4.07
2018-05-03T06:18:32.932Z,3.57
2018-05-03T06:21:06.749Z,3.43
2018-05-03T06:23:34.220Z,4.27
2018-05-03T06:26:01.756Z,3.77
2018-05-03T06:28:29.478Z,4.17
2018-05-03T06:30:57.027Z,4.40
2018-05-03T06:33:24.525Z,4.10
2018-05-03T06:35:52.153Z,4.50
2018-05-03T06:38:20.500Z,4.80
2018-05-03T06:40:50.069Z,4.90
2018-05-03T06:43:17.668Z,4.93
2018-05-03T06:45:45.133Z,5.50
2018-05-03T06:48:12.635Z,5.93
2018-05-03T06:50:40.977Z,5.17
2018-05-03T06:53:08.556Z,4.83
2018-05-03T06:55:36.811Z,4.87
2018-05-03T06:58:04.673Z,5.17
2018-05-03T07:00:32.173Z,5.37
2018-05-03T07:03:00.460Z,5.37
2018-05-03T07:05:28.668Z,5.53
2018-05-03T07:07:56.132Z,4.77
2018-05-03T07:10:23.771Z,5.53
2018-05-03T07:12:51.232Z,5.07
2018-05-03T07:15:18.701Z,5.30
2018-05-03T07:17:46.234Z,5.33
2018-05-03T07:20:13.704Z,5.17
2018-05-03T07:22:41.168Z,4.93
2018-05-03T07:25:09.114Z,4.80
2018-05-03T07:27:37.367Z,4.83
2018-05-03T07:30:04.888Z,4.67
2018-05-03T07:32:32.358Z,4.70
2018-05-03T07:34:59.833Z,4.70
2018-05-03T07:37:27.311Z,4.50
2018-05-03T07:39:55.554Z,4.50
2018-05-03T07:42:23.076Z,5.00
2018-05-03T07:44:50.541Z,4.50
2018-05-03T07:47:18.033Z,5.07
2018-05-03T07:49:45.513Z,4.50
2018-05-03T07:52:13.733Z,4.50
2018-05-03T07:54:41.221Z,4.57
2018-05-03T07:57:08.856Z,4.60
2018-05-03T07:59:36.769Z,4.70
2018-05-03T08:02:05.074Z,4.60
2018-05-03T08:04:32.533Z,5.00
2018-05-03T08:07:00.020Z,4.70
2018-05-03T08:09:27.618Z,5.00
2018-05-03T08:11:55.814Z,4.13
2018-05-03T08:14:24.541Z,4.80
2018-05-03T08:16:52.040Z,4.70
2018-05-03T08:19:20.279Z,4.10
2018-05-03T08:21:47.750Z,4.00
2018-05-03T08:24:15.268Z,4.03
2018-05-03T08:26:42.736Z,4.30
2018-05-03T08:29:10.198Z,3.60
2018-05-03T08:31:38.617Z,4.10
2018-05-03T08:34:06.066Z,3.83
2018-05-03T08:36:33.536Z,4.30
2018-05-03T08:39:00.993Z,4.00
2018-05-03T08:41:29.242Z,4.03
2018-05-03T08:43:56.724Z,4.67
2018-05-03T08:46:24.300Z,4.37
2018-05-03T08:48:52.520Z,3.80
2018-05-03T08:51:20.544Z,4.00
2018-05-03T08:53:48.778Z,4.35
2018-05-03T08:56:16.246Z,4.40
2018-05-03T08:58:43.803Z,4.83
2018-05-03T09:01:11.279Z,3.70
2018-05-03T09:03:39.518Z,3.67
2018-05-03T09:06:06.997Z,3.60
2018-05-03T09:08:35.277Z,4.43
2018-05-03T09:11:02.730Z,4.45
2018-05-03T09:13:30.222Z,4.68
2018-05-03T09:15:59.010Z,4.72
2018-05-03T09:18:30.673Z,3.70
2018-05-03T09:21:01.685Z,4.12
2018-05-03T09:23:29.756Z,4.93
2018-05-03T09:25:57.235Z,4.97
2018-05-03T09:28:26.065Z,8.48
2018-05-03T09:30:53.516Z,6.10
2018-05-03T09:33:21.052Z,5.45
2018-05-03T09:35:48.504Z,4.25
2018-05-03T09:38:17.809Z,4.00
2018-05-03T09:40:45.285Z,4.03
2018-05-03T09:43:12.748Z,3.35
2018-05-03T09:45:40.218Z,4.15
2018-05-03T09:48:07.696Z,3.85
2018-05-03T09:50:35.161Z,3.95
2018-05-03T09:53:02.632Z,3.30
2018-05-03T09:55:30.857Z,3.92
2018-05-03T09:57:59.017Z,2.83
2018-05-03T10:00:26.477Z,3.95
2018-05-03T10:02:54.065Z,3.30
2018-05-03T10:05:21.913Z,4.05
2018-05-03T10:07:49.381Z,3.25
2018-05-03T10:10:17.434Z,3.85
2018-05-03T10:12:45.326Z,4.35
2018-05-03T10:15:12.897Z,3.87
2018-05-03T10:17:40.936Z,2.97
2018-05-03T10:20:14.577Z,3.58
2018-05-03T10:22:49.750Z,3.62
2018-05-03T10:25:17.885Z,3.72
2018-05-03T10:27:45.408Z,4.45
2018-05-03T10:30:12.941Z,3.80
2018-05-03T10:32:47.026Z,4.12
2018-05-03T10:35:14.576Z,3.75
2018-05-03T10:37:42.051Z,4.12
2018-05-03T10:40:10.186Z,3.17
2018-05-03T10:42:37.918Z,3.50
2018-05-03T10:45:05.581Z,4.10
2018-05-03T10:47:33.126Z,3.62
2018-05-03T10:50:02.361Z,3.78
2018-05-03T10:52:32.338Z,3.30
2018-05-03T10:55:00.662Z,3.22
2018-05-03T10:57:30.826Z,2.85
2018-05-03T10:59:58.887Z,2.75
2018-05-03T11:02:26.452Z,3.37
2018-05-03T11:04:54.956Z,3.37
2018-05-03T11:07:23.181Z,3.87
2018-05-03T11:09:50.646Z,3.60
2018-05-03T11:12:18.486Z,3.60
2018-05-03T11:14:45.953Z,2.70
2018-05-03T11:17:13.432Z,2.80
2018-05-03T11:19:40.925Z,3.15
2018-05-03T11:22:32.986Z,4.43
2018-05-03T11:25:00.492Z,3.15
2018-05-03T11:27:28.737Z,3.55
2018-05-03T11:29:56.225Z,3.45
2018-05-03T11:32:23.878Z,3.65
2018-05-03T11:34:52.791Z,3.80
2018-05-03T11:37:21.016Z,3.30
2018-05-03T11:39:48.495Z,3.55
2018-05-03T11:42:16.005Z,3.90
2018-05-03T11:44:43.528Z,3.87
2018-05-03T11:47:11.559Z,4.00
2018-05-03T11:49:39.029Z,4.22
2018-05-03T11:52:06.495Z,4.55
2018-05-03T11:54:33.978Z,3.87
2018-05-03T11:57:01.473Z,3.80
2018-05-03T11:59:28.992Z,3.70
2018-05-03T12:01:57.654Z,4.07
2018-05-03T12:04:25.146Z,4.12
2018-05-03T12:06:56.381Z,4.28
2018-05-03T12:09:25.097Z,4.70
2018-05-03T12:11:52.773Z,4.10
2018-05-03T12:14:20.196Z,4.37
2018-05-03T12:16:49.005Z,3.90
2018-05-03T12:19:17.142Z,4.40
2018-05-03T12:21:44.611Z,3.10
2018-05-03T12:24:14.121Z,3.90
2018-05-03T12:26:42.503Z,2.92
2018-05-03T12:29:10.884Z,3.22
2018-05-03T12:31:39.127Z,2.75
2018-05-03T12:34:06.601Z,3.15
2018-05-03T12:36:35.039Z,4.75
2018-05-03T12:39:02.513Z,3.78
2018-05-03T12:41:29.980Z,3.75
2018-05-03T12:43:58.459Z,3.72
2018-05-03T12:46:26.173Z,4.85
2018-05-03T12:48:54.512Z,5.12
2018-05-03T12:51:22.940Z,4.43
2018-05-03T12:53:50.410Z,5.45
2018-05-03T12:56:18.871Z,4.75
2018-05-03T12:58:47.140Z,4.32
2018-05-03T13:01:15.553Z,4.25
2018-05-03T13:07:16.673Z,4.65
2018-05-03T13:09:44.437Z,4.30
2018-05-03T13:12:14.648Z,4.10
2018-05-03T13:14:44.810Z,3.78
2018-05-03T13:17:12.345Z,3.95
2018-05-03T13:19:40.249Z,3.10
2018-05-03T13:22:08.142Z,3.37
2018-05-03T13:24:35.604Z,2.58
2018-05-03T13:27:03.080Z,2.78
2018-05-03T13:29:31.249Z,2.60
2018-05-03T13:31:58.709Z,2.95
2018-05-03T13:34:26.252Z,2.58
2018-05-03T13:36:53.625Z,2.70
2018-05-03T13:39:21.091Z,2.83
2018-05-03T13:41:48.553Z,3.00
2018-05-03T13:44:18.356Z,2.55
2018-05-03T13:46:45.876Z,2.42
2018-05-03T13:49:15.191Z,2.90
2018-05-03T13:51:42.853Z,2.62
2018-05-03T13:54:10.334Z,2.42
2018-05-03T13:56:38.056Z,2.30
2018-05-03T13:59:06.380Z,2.20
2018-05-03T14:01:34.764Z,2.65
2018-05-03T14:04:04.133Z,2.70
2018-05-03T14:06:31.771Z,2.40
2018-05-03T14:09:02.002Z,2.08
2018-05-03T14:11:32.677Z,2.47
2018-05-03T14:14:00.170Z,2.75
2018-05-03T14:16:27.638Z,2.45
2018-05-03T14:18:55.657Z,2.70
2018-05-03T14:21:23.123Z,3.33
2018-05-03T14:23:51.454Z,2.60
2018-05-03T14:26:18.945Z,2.60
2018-05-03T14:28:47.286Z,2.50
2018-05-03T14:31:15.489Z,2.35
2018-05-03T14:33:45.832Z,2.50
2018-05-03T14:36:14.120Z,2.22
2018-05-03T14:38:42.980Z,2.10
2018-05-03T14:41:10.456Z,2.50
2018-05-03T14:43:39.000Z,2.20
2018-05-03T14:46:06.460Z,2.60
2018-05-03T14:48:33.920Z,2.87
2018-05-03T14:51:02.062Z,2.55
2018-05-03T14:53:32.620Z,2.30
2018-05-03T14:56:07.351Z,2.55
2018-05-03T14:58:34.809Z,2.40
2018-05-03T15:01:03.274Z,2.70
2018-05-03T15:03:30.834Z,2.65
2018-05-03T15:05:58.465Z,2.83
2018-05-03T15:08:27.246Z,2.47
2018-05-03T15:10:56.813Z,2.50
2018-05-03T15:13:24.366Z,2.30
2018-05-03T15:15:52.496Z,2.40
2018-05-03T15:18:22.279Z,2.30
2018-05-03T15:20:49.936Z,2.60
2018-05-03T15:23:17.681Z,2.58
2018-05-03T15:25:45.760Z,3.03
2018-05-03T15:28:13.401Z,2.80
2018-05-03T15:30:41.037Z,2.53
2018-05-03T15:33:08.545Z,2.37
2018-05-03T15:35:36.816Z,2.50
2018-05-03T15:38:04.954Z,2.30
2018-05-03T15:40:32.426Z,2.62
2018-05-03T15:42:59.917Z,2.87
2018-05-03T15:45:27.389Z,2.37
2018-05-03T15:47:54.981Z,2.05
2018-05-03T15:50:23.503Z,2.30
2018-05-03T15:52:51.895Z,2.37
2018-05-03T15:55:20.593Z,2.12
2018-05-03T15:57:48.042Z,2.05
2018-05-03T16:00:15.519Z,2.30
2018-05-03T16:02:43.396Z,1.98
2018-05-03T16:05:11.520Z,2.25
2018-05-03T16:07:39.030Z,2.10
2018-05-03T16:10:07.295Z,1.98
2018-05-03T16:12:35.532Z,2.50
2018-05-03T16:15:03.039Z,2.50
2018-05-03T16:17:32.247Z,2.72
2018-05-03T16:20:01.064Z,1.90
2018-05-03T16:22:28.556Z,2.10
2018-05-03T16:24:56.023Z,1.90
2018-05-03T16:27:24.356Z,1.80
2018-05-03T16:29:51.864Z,1.95
2018-05-03T16:32:21.613Z,1.70
2018-05-03T16:34:49.305Z,1.80
2018-05-03T16:37:16.765Z,1.90
2018-05-03T16:39:44.217Z,1.48
2018-05-03T16:42:11.679Z,1.77
2018-05-03T16:44:39.309Z,1.60
2018-05-03T16:47:10.154Z,1.73
2018-05-03T16:49:37.713Z,1.80
2018-05-03T16:52:05.606Z,1.40
2018-05-03T16:54:33.492Z,1.87
2018-05-03T16:57:01.015Z,1.75
2018-05-03T16:59:28.561Z,1.67
2018-05-03T17:02:00.056Z,1.70
2018-05-03T17:04:28.067Z,1.80
2018-05-03T17:07:03.787Z,1.70
2018-05-03T17:09:31.685Z,1.70
2018-05-03T17:11:59.934Z,1.85
2018-05-03T17:14:27.664Z,1.70
2018-05-03T17:16:55.225Z,1.60
2018-05-03T17:19:23.910Z,1.40
2018-05-03T17:21:51.469Z,1.73
2018-05-03T17:24:20.234Z,1.73
2018-05-03T17:26:47.693Z,1.60
2018-05-03T17:29:15.178Z,1.60
2018-05-03T17:31:42.733Z,1.90
2018-05-03T17:34:10.197Z,1.70
2018-05-03T17:36:37.810Z,1.70
2018-05-03T17:39:06.107Z,1.70
2018-05-03T17:41:38.965Z,1.95
2018-05-03T17:44:07.219Z,1.42
2018-05-03T17:46:35.446Z,1.70
2018-05-03T17:49:03.127Z,1.55
2018-05-03T17:51:31.758Z,1.90
2018-05-03T17:53:59.242Z,1.90
2018-05-03T17:56:26.780Z,1.73
2018-05-03T17:58:54.175Z,1.90
2018-05-03T18:01:21.643Z,1.37
2018-05-03T18:03:49.105Z,1.80
2018-05-03T18:06:16.604Z,1.50
2018-05-03T18:08:44.182Z,1.40
2018-05-03T18:11:11.664Z,1.43
2018-05-03T18:13:39.458Z,1.30
2018-05-03T18:16:07.021Z,1.73
2018-05-03T18:18:35.207Z,1.40
2018-05-03T18:21:02.690Z,1.70
2018-05-03T18:23:30.202Z,1.70
2018-05-03T18:26:14.908Z,1.57
2018-05-03T18:28:43.938Z,1.60
2018-05-03T18:31:11.492Z,1.90
2018-05-03T18:33:39.060Z,1.70
2018-05-03T18:36:06.590Z,1.70
2018-05-03T18:38:34.069Z,1.50
2018-05-03T18:41:01.922Z,1.60
2018-05-03T18:43:29.392Z,1.50
2018-05-03T18:45:56.869Z,1.50
2018-05-03T18:48:24.566Z,1.70
2018-05-03T18:50:52.237Z,1.60
2018-05-03T18:53:20.513Z,1.67
2018-05-03T20:05:55.802Z,2.00
2018-05-03T20:08:23.588Z,1.60
2018-05-03T20:10:51.016Z,2.30
2018-05-03T20:13:19.806Z,2.20
2018-05-03T20:15:47.274Z,2.17
2018-05-03T20:18:15.156Z,1.70
2018-05-03T20:20:43.467Z,2.20
2018-05-03T20:23:10.985Z,2.00
2018-05-03T20:25:40.215Z,2.00
2018-05-03T20:28:11.249Z,1.90
2018-05-03T20:30:39.192Z,1.60
2018-05-03T20:33:06.694Z,1.80
2018-05-03T20:35:35.092Z,1.87
2018-05-03T20:38:03.372Z,1.80
2018-05-03T20:40:31.485Z,1.50
2018-05-03T20:42:59.810Z,1.90
2018-05-03T20:45:27.333Z,1.40
2018-05-03T20:47:54.965Z,1.40
2018-05-03T20:50:22.425Z,1.40
2018-05-03T20:52:49.908Z,1.50
2018-05-03T20:55:18.145Z,1.50
2018-05-03T20:57:45.624Z,1.57
2018-05-03T21:00:13.082Z,1.50
2018-05-03T21:02:40.729Z,1.60
2018-05-03T21:05:12.819Z,1.27
2018-05-03T21:07:41.072Z,1.60
2018-05-03T21:10:08.755Z,1.60
2018-05-03T21:12:36.275Z,2.10
2018-05-03T21:15:03.736Z,1.37
2018-05-03T21:20:04.148Z,1.37
2018-05-03T21:22:31.633Z,1.47
2018-05-03T21:25:00.168Z,1.63
2018-05-03T21:27:29.558Z,1.40
2018-05-03T21:29:57.972Z,1.87
2018-05-03T21:32:27.555Z,1.13
2018-05-03T21:34:57.461Z,1.73
2018-05-03T21:37:25.749Z,1.27
2018-05-03T21:39:54.379Z,1.60
2018-05-03T21:42:23.029Z,1.70
2018-05-03T21:44:50.564Z,1.60
2018-05-03T21:47:18.133Z,1.77
2018-05-03T21:49:45.611Z,1.63
2018-05-03T21:52:13.276Z,1.53
2018-05-03T21:54:42.134Z,1.90
2018-05-03T21:57:10.153Z,1.80
2018-05-03T21:59:37.656Z,1.57
2018-05-03T22:02:05.666Z,1.60
2018-05-03T22:04:33.148Z,1.70
2018-05-03T22:07:01.517Z,1.60
2018-05-03T22:09:29.438Z,1.47
2018-05-03T22:11:58.433Z,1.70
2018-05-03T22:14:28.034Z,1.93
2018-05-03T22:16:56.103Z,1.87
2018-05-03T22:19:24.405Z,1.67
2018-05-03T22:21:53.190Z,1.43
2018-05-03T22:24:20.668Z,1.60
2018-05-03T22:26:48.133Z,1.70
2018-05-03T22:29:15.762Z,1.57
2018-05-03T22:31:43.281Z,1.83
2018-05-03T22:34:11.637Z,1.80
2018-05-03T22:36:39.136Z,1.50
2018-05-03T22:39:06.610Z,2.00
2018-05-03T22:41:34.289Z,1.47
2018-05-03T22:44:02.185Z,1.57
2018-05-03T22:46:30.094Z,1.57
2018-05-03T22:48:58.033Z,1.90
2018-05-03T22:51:25.549Z,1.50
2018-05-03T22:53:53.776Z,1.70
2018-05-03T22:56:21.257Z,1.57
2018-05-03T22:58:49.244Z,2.03
2018-05-03T23:01:17.197Z,1.63
2018-05-03T23:03:44.640Z,2.17
2018-05-03T23:06:12.113Z,1.83
2018-05-03T23:08:39.620Z,1.43
2018-05-03T23:11:07.097Z,1.53
2018-05-03T23:13:34.584Z,1.90
2018-05-03T23:16:03.858Z,1.70
2018-05-03T23:18:31.776Z,1.77
2018-05-03T23:21:00.694Z,1.90
2018-05-03T23:23:28.168Z,1.87
2018-05-03T23:25:55.969Z,1.90
2018-05-03T23:28:24.207Z,1.40
2018-05-03T23:30:56.813Z,1.53
2018-05-03T23:33:25.002Z,1.50
2018-05-03T23:35:54.534Z,1.53
2018-05-03T23:38:22.044Z,1.53
2018-05-03T23:40:49.512Z,1.77
2018-05-03T23:43:17.524Z,2.07
2018-05-03T23:45:45.267Z,1.57
2018-05-03T23:48:14.184Z,1.40
2018-05-03T23:50:42.498Z,1.80
2018-05-03T23:53:13.712Z,1.77
2018-05-03T23:55:41.215Z,1.93
2018-05-03T23:58:09.339Z,1.60
